Time;durP1;ratioP1;P1;durP2;ratioP2;P2;SDS_P1;SDS_P2;PMS_P1;PMS_P2;Temp;Humidity;BMP_temperature;BMP_pressure;BME280_temperature;BME280_humidity;BME280_pressure;Samples;Min_cycle;Max_cycle;Signal;HPM_P1;HPM_P2
2021/06/21 00:01:28;;;;;;;15.77;5.43;;;25.60;55.80;;;;;;5004196;28;20057;-62
2021/06/21 00:03:54;;;;;;;16.08;5.57;;;25.60;56.10;;;;;;5017166;28;20045;-62
2021/06/21 00:06:20;;;;;;;12.90;5.70;;;25.60;56.40;;;;;;5014024;28;20054;-61
2021/06/21 00:08:46;;;;;;;13.52;5.03;;;25.50;56.60;;;;;;5005186;28;20478;-62
2021/06/21 00:11:11;;;;;;;12.45;4.93;;;25.50;56.80;;;;;;5000362;28;20117;-61
2021/06/21 00:13:37;;;;;;;16.45;5.60;;;25.50;57.00;;;;;;5002515;28;20051;-62
2021/06/21 00:16:03;;;;;;;13.55;5.18;;;25.50;56.80;;;;;;5004960;28;20041;-61
2021/06/21 00:18:29;;;;;;;14.35;4.57;;;25.50;57.30;;;;;;4997867;28;20045;-62
2021/06/21 00:20:55;;;;;;;13.65;6.03;;;25.50;57.40;;;;;;5007435;28;20374;-61
2021/06/21 00:23:21;;;;;;;13.40;5.45;;;25.50;57.60;;;;;;5006000;28;20108;-62
2021/06/21 00:25:47;;;;;;;15.68;6.22;;;25.30;58.10;;;;;;5019404;28;20052;-61
2021/06/21 00:28:15;;;;;;;12.02;5.13;;;25.30;58.10;;;;;;5015684;28;20053;-61
2021/06/21 00:30:40;;;;;;;16.40;5.45;;;25.30;58.10;;;;;;5021613;28;20042;-62
2021/06/21 00:33:06;;;;;;;11.60;5.35;;;25.20;58.30;;;;;;5042975;28;20510;-62
2021/06/21 00:35:32;;;;;;;14.43;5.65;;;25.10;58.20;;;;;;5011762;28;20077;-61
2021/06/21 00:37:58;;;;;;;14.52;5.47;;;25.20;58.60;;;;;;5019083;28;20136;-61
2021/06/21 00:40:24;;;;;;;14.35;5.88;;;25.20;58.40;;;;;;5013179;28;20155;-61
2021/06/21 00:42:50;;;;;;;18.10;6.03;;;25.20;58.30;;;;;;5013575;28;20088;-62
2021/06/21 00:45:18;;;;;;;14.23;5.28;;;25.20;58.40;;;;;;5026584;28;20038;-62
2021/06/21 00:47:43;;;;;;;16.55;6.05;;;25.20;58.40;;;;;;5037483;28;20053;-62
2021/06/21 00:50:10;;;;;;;13.18;5.25;;;25.20;58.20;;;;;;5020826;28;20099;-62
2021/06/21 00:52:36;;;;;;;15.80;5.18;;;25.30;58.30;;;;;;5013550;28;20045;-62
2021/06/21 00:55:06;;;;;;;10.85;4.65;;;25.10;58.00;;;;;;5007001;28;20036;-62
2021/06/21 00:57:34;;;;;;;12.48;5.10;;;25.00;58.20;;;;;;5007131;28;20058;-62
2021/06/21 01:00:08;;;;;;;12.20;4.97;;;24.90;58.40;;;;;;5014694;28;20029;-62
2021/06/21 01:02:34;;;;;;;;;;;25.10;58.20;;;;;;5024504;28;20457;-62
2021/06/21 01:04:59;;;;;;;16.88;5.50;;;25.00;59.00;;;;;;5014313;28;20014;-62
2021/06/21 01:07:25;;;;;;;17.10;5.78;;;25.00;58.20;;;;;;5020780;28;20480;-61
2021/06/21 01:09:53;;;;;;;19.25;5.53;;;25.10;58.00;;;;;;5003000;28;20497;-63
2021/06/21 01:12:46;;;;;;;14.00;5.22;;;25.10;57.90;;;;;;5006267;28;20384;-62
2021/06/21 01:15:13;;;;;;;13.30;4.72;;;25.10;58.10;;;;;;4975557;28;20487;-62
2021/06/21 01:17:46;;;;;;;17.90;4.90;;;25.10;58.00;;;;;;5018898;28;20454;-61
2021/06/21 01:20:20;;;;;;;14.05;4.82;;;25.10;57.60;;;;;;5006954;28;20036;-62
2021/06/21 01:23:31;;;;;;;10.35;5.10;;;25.20;57.70;;;;;;5011976;28;20538;-61
2021/06/21 01:26:19;;;;;;;14.30;4.78;;;25.20;57.60;;;;;;4967045;28;20120;-60
2021/06/21 01:29:31;;;;;;;14.68;4.95;;;25.10;57.20;;;;;;5014273;28;20140;-62
2021/06/21 01:32:16;;;;;;;14.63;6.15;;;25.20;57.60;;;;;;4961787;28;20502;-62
2021/06/21 01:34:46;;;;;;;12.07;4.40;;;25.10;56.90;;;;;;5009377;28;20038;-62
2021/06/21 01:37:14;;;;;;;9.13;4.47;;;25.10;56.90;;;;;;5016100;28;20045;-62
2021/06/21 01:39:42;;;;;;;14.55;5.15;;;25.10;56.50;;;;;;5017261;28;20044;-62
2021/06/21 01:42:11;;;;;;;15.40;5.85;;;25.10;56.50;;;;;;5016547;28;20228;-62
2021/06/21 01:44:41;;;;;;;10.93;4.97;;;25.10;56.50;;;;;;5005428;28;20157;-61
2021/06/21 01:47:08;;;;;;;16.25;4.63;;;25.10;56.50;;;;;;5008400;28;20049;-61
2021/06/21 01:49:38;;;;;;;14.27;4.93;;;25.10;56.40;;;;;;5008943;28;20041;-61
2021/06/21 01:52:07;;;;;;;13.48;4.97;;;25.10;56.50;;;;;;4996594;28;20046;-61
2021/06/21 01:54:35;;;;;;;12.98;5.20;;;25.10;56.30;;;;;;5006979;28;20035;-61
2021/06/21 01:57:03;;;;;;;15.77;5.63;;;25.10;55.80;;;;;;5014802;28;20597;-61
2021/06/21 01:59:29;;;;;;;16.52;6.35;;;25.10;56.70;;;;;;5056092;28;20033;-62
2021/06/21 02:01:59;;;;;;;16.80;5.55;;;25.10;56.60;;;;;;5010808;28;20052;-60
2021/06/21 02:04:28;;;;;;;17.90;5.13;;;25.10;56.70;;;;;;5003279;28;20046;-62
2021/06/21 02:06:55;;;;;;;16.45;5.18;;;25.00;56.60;;;;;;4999442;28;20129;-62
2021/06/21 02:09:23;;;;;;;11.07;4.68;;;25.00;56.70;;;;;;5001038;28;20050;-62
2021/06/21 02:11:52;;;;;;;17.10;5.93;;;25.00;57.00;;;;;;5043002;28;20041;-62
2021/06/21 02:14:25;;;;;;;18.23;5.57;;;25.00;57.00;;;;;;5009106;28;20038;-62
2021/06/21 02:16:52;;;;;;;10.43;4.78;;;25.10;56.80;;;;;;5013244;28;20053;-62
2021/06/21 02:19:20;;;;;;;17.10;5.22;;;25.10;56.70;;;;;;5006854;28;20042;-62
2021/06/21 02:21:48;;;;;;;12.20;4.82;;;25.00;56.70;;;;;;5007020;28;20109;-61
2021/06/21 02:24:15;;;;;;;15.63;6.05;;;25.10;56.70;;;;;;5043002;28;20042;-62
2021/06/21 02:26:43;;;;;;;16.60;5.70;;;25.00;56.50;;;;;;5016085;28;20041;-62
2021/06/21 02:29:10;;;;;;;14.85;5.53;;;25.10;56.50;;;;;;5002013;28;20030;-62
2021/06/21 02:31:35;;;;;;;19.90;5.25;;;25.10;56.50;;;;;;5018847;28;20403;-62
2021/06/21 02:34:01;;;;;;;14.63;4.72;;;25.10;56.30;;;;;;4997264;28;20045;-62
2021/06/21 02:36:27;;;;;;;16.23;5.13;;;25.10;56.40;;;;;;5008098;28;20133;-62
2021/06/21 02:38:54;;;;;;;11.30;4.65;;;25.10;56.40;;;;;;5000021;28;20037;-61
2021/06/21 02:41:20;;;;;;;13.23;5.07;;;25.10;56.30;;;;;;5019671;28;20038;-61
2021/06/21 02:43:46;;;;;;;15.73;5.63;;;25.10;56.40;;;;;;5006466;28;20489;-61
2021/06/21 02:46:12;;;;;;;11.40;5.00;;;25.10;56.50;;;;;;5019434;28;20037;-61
2021/06/21 02:48:39;;;;;;;14.50;5.05;;;25.10;56.10;;;;;;4997188;28;20042;-62
2021/06/21 02:51:08;;;;;;;11.57;4.72;;;25.20;56.10;;;;;;4998113;28;20484;-61
2021/06/21 02:53:59;;;;;;;9.80;4.85;;;25.20;56.00;;;;;;5000602;28;21796;-63
2021/06/21 02:56:44;;;;;;;19.30;5.72;;;25.20;55.90;;;;;;5011666;28;20045;-62
2021/06/21 02:59:11;;;;;;;;;;;25.20;55.80;;;;;;4997947;28;21989;-62
2021/06/21 03:01:42;;;;;;;18.08;5.32;;;25.20;56.60;;;;;;5007231;28;19921;-62
2021/06/21 03:04:12;;;;;;;15.25;5.30;;;25.30;55.90;;;;;;5006016;28;20073;-62
2021/06/21 03:06:38;;;;;;;11.85;4.53;;;25.30;56.10;;;;;;5003024;28;20034;-62
2021/06/21 03:09:04;;;;;;;13.57;4.80;;;25.30;55.90;;;;;;5003034;28;20050;-62
2021/06/21 03:11:32;;;;;;;15.95;5.68;;;25.20;55.90;;;;;;5002730;28;20046;-61
2021/06/21 03:13:58;;;;;;;16.88;5.78;;;25.30;56.40;;;;;;5014038;28;20388;-62
2021/06/21 03:16:27;;;;;;;14.43;5.47;;;25.20;56.00;;;;;;5000590;28;20522;-62
2021/06/21 03:18:55;;;;;;;18.15;4.90;;;25.20;56.10;;;;;;5015723;28;20042;-61
2021/06/21 03:21:21;;;;;;;15.90;5.90;;;25.20;56.10;;;;;;5032321;28;20033;-62
2021/06/21 03:23:53;;;;;;;16.63;5.70;;;25.20;56.20;;;;;;5008110;28;20088;-62
2021/06/21 03:26:27;;;;;;;18.45;6.50;;;25.20;56.30;;;;;;5014901;28;20121;-62
2021/06/21 03:28:53;;;;;;;12.70;5.28;;;25.20;56.30;;;;;;5014945;28;20065;-61
2021/06/21 03:31:21;;;;;;;17.10;5.55;;;25.20;56.10;;;;;;5000037;28;20115;-61
2021/06/21 03:33:46;;;;;;;11.93;4.97;;;25.20;56.00;;;;;;5011298;28;20124;-62
2021/06/21 03:36:12;;;;;;;15.35;5.25;;;25.30;55.70;;;;;;5011229;28;20526;-62
2021/06/21 03:38:38;;;;;;;23.52;5.93;;;25.30;55.60;;;;;;5006214;28;20494;-62
2021/06/21 03:41:05;;;;;;;13.13;5.20;;;25.30;55.60;;;;;;5007521;28;20038;-62
2021/06/21 03:43:33;;;;;;;15.23;5.03;;;25.20;55.90;;;;;;5010127;28;20037;-63
2021/06/21 03:46:01;;;;;;;17.25;5.70;;;25.20;56.30;;;;;;4999000;28;20042;-62
2021/06/21 03:48:28;;;;;;;13.18;5.00;;;25.20;56.40;;;;;;5001573;28;20042;-62
2021/06/21 03:50:54;;;;;;;14.43;5.40;;;25.10;56.20;;;;;;5006546;28;20128;-62
2021/06/21 03:53:21;;;;;;;17.48;5.07;;;25.20;56.30;;;;;;5003137;28;20787;-61
2021/06/21 03:55:47;;;;;;;14.10;5.18;;;25.20;56.20;;;;;;5030548;28;20049;-61
2021/06/21 03:58:13;;;;;;;12.13;5.22;;;25.20;56.90;;;;;;5006661;28;20038;-61
2021/06/21 04:00:39;;;;;;;14.88;5.63;;;25.20;56.40;;;;;;5010266;28;20042;-61
2021/06/21 04:03:09;;;;;;;10.43;4.80;;;25.20;56.10;;;;;;5008921;28;20038;-61
2021/06/21 04:05:37;;;;;;;16.17;5.88;;;25.20;56.10;;;;;;5011605;28;20510;-61
2021/06/21 04:08:04;;;;;;;22.73;5.35;;;25.30;55.90;;;;;;5000595;28;20030;-62
2021/06/21 04:10:30;;;;;;;11.45;4.32;;;25.30;56.10;;;;;;5020720;28;20095;-62
2021/06/21 04:12:56;;;;;;;13.90;5.22;;;25.30;55.60;;;;;;5015314;28;20042;-61
2021/06/21 04:15:33;;;;;;;16.30;4.45;;;25.30;55.70;;;;;;5012214;28;20379;-61
2021/06/21 04:18:17;;;;;;;11.00;5.78;;;25.30;56.00;;;;;;4997885;28;20503;-61
2021/06/21 04:20:45;;;;;;;18.67;5.90;;;25.30;56.20;;;;;;5016987;28;20079;-61
2021/06/21 04:23:12;;;;;;;15.50;5.22;;;25.30;55.60;;;;;;4997782;28;20433;-61
2021/06/21 04:25:38;;;;;;;11.23;5.60;;;25.30;55.60;;;;;;5007164;28;20404;-61
2021/06/21 04:28:05;;;;;;;17.17;5.78;;;25.40;55.70;;;;;;5001813;28;20048;-62
2021/06/21 04:30:32;;;;;;;20.50;6.05;;;25.50;55.40;;;;;;5005401;28;20129;-62
2021/06/21 04:33:17;;;;;;;16.38;5.47;;;25.60;54.90;;;;;;5015321;28;20041;-62
2021/06/21 04:35:43;;;;;;;21.20;5.45;;;25.60;55.20;;;;;;5008894;28;20153;-62
2021/06/21 04:38:08;;;;;;;16.00;6.25;;;25.70;54.70;;;;;;5008111;28;20205;-62
2021/06/21 04:40:35;;;;;;;18.50;6.03;;;25.70;54.70;;;;;;4999839;28;20056;-62
2021/06/21 04:43:01;;;;;;;17.23;5.22;;;25.70;54.60;;;;;;5015436;28;20042;-62
2021/06/21 04:45:27;;;;;;;18.08;6.25;;;25.70;54.20;;;;;;5025850;28;20030;-62
2021/06/21 04:47:53;;;;;;;16.17;4.50;;;25.70;54.10;;;;;;5005220;28;20480;-63
2021/06/21 04:50:19;;;;;;;17.88;5.40;;;25.80;54.00;;;;;;5004389;28;20045;-62
2021/06/21 04:52:46;;;;;;;15.48;5.57;;;25.70;53.80;;;;;;5003465;28;20117;-62
2021/06/21 04:55:13;;;;;;;23.10;6.38;;;25.70;54.00;;;;;;4999373;28;20025;-61
2021/06/21 04:57:40;;;;;;;16.58;5.13;;;25.80;54.20;;;;;;5006322;28;20050;-61
2021/06/21 05:00:11;;;;;;;18.90;5.05;;;25.70;54.10;;;;;;5007474;28;20040;-61
2021/06/21 05:02:38;;;;;;;16.02;5.47;;;25.80;54.10;;;;;;5019764;28;20045;-61
2021/06/21 05:05:04;;;;;;;15.27;5.10;;;25.70;53.90;;;;;;5014023;28;20559;-62
2021/06/21 05:07:30;;;;;;;16.33;5.13;;;25.80;53.70;;;;;;5018911;28;20048;-61
2021/06/21 05:09:55;;;;;;;15.02;4.97;;;25.80;53.80;;;;;;5015453;28;20038;-61
2021/06/21 05:12:21;;;;;;;15.57;4.93;;;25.80;53.90;;;;;;5003379;28;20124;-61
2021/06/21 05:14:47;;;;;;;19.88;6.93;;;25.80;53.50;;;;;;5000232;28;20034;-61
2021/06/21 05:17:13;;;;;;;13.60;4.47;;;25.80;53.70;;;;;;5018442;28;20527;-61
2021/06/21 05:19:39;;;;;;;12.48;5.18;;;25.80;53.60;;;;;;5003930;28;20048;-63
2021/06/21 05:22:05;;;;;;;12.15;5.93;;;25.80;54.20;;;;;;5009407;28;20037;-62
2021/06/21 05:24:32;;;;;;;14.43;5.55;;;25.80;54.10;;;;;;5012731;28;20132;-59
2021/06/21 05:26:58;;;;;;;16.58;4.93;;;25.90;54.50;;;;;;5021518;28;20041;-62
2021/06/21 05:29:23;;;;;;;16.10;5.60;;;25.90;54.00;;;;;;5023481;28;20081;-62
2021/06/21 05:31:49;;;;;;;16.00;5.80;;;26.00;53.20;;;;;;5020594;28;20033;-62
2021/06/21 05:34:15;;;;;;;18.90;5.57;;;26.00;53.10;;;;;;5005875;28;20051;-63
2021/06/21 05:36:41;;;;;;;18.13;6.47;;;26.10;52.80;;;;;;5003891;28;20037;-62
2021/06/21 05:39:07;;;;;;;19.48;5.60;;;26.10;52.40;;;;;;5008231;28;20049;-62
2021/06/21 05:41:32;;;;;;;17.95;5.20;;;26.20;52.30;;;;;;5002627;28;20816;-63
2021/06/21 05:43:58;;;;;;;12.52;4.78;;;26.10;52.40;;;;;;5005665;28;20060;-62
2021/06/21 05:46:24;;;;;;;17.42;5.32;;;26.20;52.40;;;;;;5006026;28;20037;-63
2021/06/21 05:48:49;;;;;;;17.02;5.32;;;26.30;52.10;;;;;;5016372;28;20391;-63
2021/06/21 05:51:15;;;;;;;18.17;6.00;;;26.40;51.50;;;;;;5004253;28;20045;-63
2021/06/21 05:53:41;;;;;;;16.50;4.88;;;26.60;51.10;;;;;;5015537;28;20050;-62
2021/06/21 05:56:07;;;;;;;16.98;5.68;;;26.70;51.10;;;;;;5002666;28;20065;-63
2021/06/21 05:58:33;;;;;;;19.83;6.15;;;26.70;50.60;;;;;;5008675;28;20050;-62
2021/06/21 06:00:58;;;;;;;13.32;4.70;;;26.80;50.30;;;;;;5010724;28;20038;-62
2021/06/21 06:03:24;;;;;;;18.70;5.57;;;26.70;50.20;;;;;;5009969;28;20068;-63
2021/06/21 06:05:50;;;;;;;13.68;5.03;;;26.60;50.20;;;;;;5005540;28;20476;-62
2021/06/21 06:08:16;;;;;;;21.92;6.38;;;26.50;50.30;;;;;;4993512;28;20042;-62
2021/06/21 06:10:42;;;;;;;15.43;5.38;;;26.50;50.40;;;;;;5007591;28;20041;-62
2021/06/21 06:13:08;;;;;;;22.52;5.95;;;26.60;50.40;;;;;;5015347;28;20073;-62
2021/06/21 06:15:34;;;;;;;14.85;5.15;;;26.60;50.90;;;;;;5015675;28;20073;-62
2021/06/21 06:18:00;;;;;;;15.52;4.45;;;26.70;50.30;;;;;;5014433;28;20049;-63
2021/06/21 06:20:26;;;;;;;21.67;5.63;;;26.80;50.10;;;;;;5009492;28;20041;-62
2021/06/21 06:22:51;;;;;;;18.63;5.03;;;26.80;49.90;;;;;;5013868;28;20044;-62
2021/06/21 06:25:17;;;;;;;16.52;6.35;;;26.80;49.90;;;;;;5012263;28;20152;-62
2021/06/21 06:27:44;;;;;;;21.48;5.97;;;26.80;49.70;;;;;;5013425;28;20073;-62
2021/06/21 06:30:11;;;;;;;16.77;6.00;;;26.90;49.60;;;;;;5017003;28;20450;-62
2021/06/21 06:32:39;;;;;;;15.93;5.65;;;27.00;49.10;;;;;;5010872;28;20030;-62
2021/06/21 06:35:07;;;;;;;16.95;5.68;;;27.10;48.90;;;;;;5004075;28;20038;-61
2021/06/21 06:37:33;;;;;;;20.73;5.95;;;27.10;48.90;;;;;;5001863;28;20054;-62
2021/06/21 06:39:59;;;;;;;19.83;6.25;;;27.20;47.90;;;;;;5010865;28;20157;-62
2021/06/21 06:42:24;;;;;;;17.73;6.03;;;27.40;47.90;;;;;;5018604;28;20530;-61
2021/06/21 06:44:50;;;;;;;21.02;6.78;;;27.50;47.60;;;;;;4997188;28;20124;-63
2021/06/21 06:47:16;;;;;;;24.23;6.28;;;27.40;47.40;;;;;;5028142;28;20052;-63
2021/06/21 06:49:42;;;;;;;18.98;6.40;;;27.40;47.40;;;;;;4997963;28;20041;-63
2021/06/21 06:52:07;;;;;;;27.95;6.47;;;27.60;46.90;;;;;;5001436;28;20455;-62
2021/06/21 06:57:18;;;;;;;22.63;6.55;;;27.50;46.80;;;;;;5006843;28;20503;-62
2021/06/21 06:59:44;;;;;;;25.90;6.57;;;27.60;47.10;;;;;;5012243;28;20073;-63
2021/06/21 07:02:14;;;;;;;16.50;5.70;;;27.50;47.20;;;;;;5006153;28;20029;-63
2021/06/21 07:04:39;;;;;;;27.98;7.13;;;27.50;46.60;;;;;;5011920;28;20041;-62
2021/06/21 07:07:06;;;;;;;20.33;6.28;;;27.60;46.70;;;;;;5003776;28;20487;-62
2021/06/21 07:09:34;;;;;;;21.35;5.55;;;27.60;46.60;;;;;;4998751;28;20097;-63
2021/06/21 07:12:01;;;;;;;16.55;5.93;;;27.50;46.50;;;;;;5020780;28;20399;-61
2021/06/21 07:14:27;;;;;;;23.52;6.30;;;27.60;46.50;;;;;;5008033;28;20037;-61
2021/06/21 07:16:54;;;;;;;20.88;6.75;;;27.60;46.50;;;;;;5003353;28;20484;-62
2021/06/21 07:19:21;;;;;;;21.25;6.35;;;27.70;46.20;;;;;;5001305;28;20042;-63
2021/06/21 07:21:48;;;;;;;28.92;7.72;;;27.70;46.10;;;;;;5016341;28;20128;-62
2021/06/21 07:24:15;;;;;;;24.35;6.03;;;27.80;45.90;;;;;;5009482;28;20041;-63
2021/06/21 07:26:42;;;;;;;19.92;5.78;;;27.80;45.80;;;;;;5011255;28;20542;-62
2021/06/21 07:29:09;;;;;;;21.00;6.25;;;27.90;45.90;;;;;;5012671;28;20037;-62
2021/06/21 07:31:35;;;;;;;18.45;5.97;;;28.10;45.40;;;;;;5004296;28;20135;-62
2021/06/21 07:34:04;;;;;;;24.65;6.70;;;28.00;45.30;;;;;;5017223;28;20045;-62
2021/06/21 07:36:30;;;;;;;15.82;6.97;;;28.00;45.40;;;;;;5011146;28;20049;-62
2021/06/21 07:38:56;;;;;;;20.83;7.20;;;27.80;45.20;;;;;;5025029;28;20040;-63
2021/06/21 07:41:22;;;;;;;21.35;6.75;;;27.80;46.10;;;;;;5007672;28;20045;-63
2021/06/21 07:43:49;;;;;;;23.77;6.15;;;27.90;46.10;;;;;;5010191;28;20053;-61
2021/06/21 07:46:15;;;;;;;25.45;6.40;;;27.80;45.40;;;;;;4995792;28;20034;-61
2021/06/21 07:48:41;;;;;;;21.45;6.68;;;27.90;45.90;;;;;;5004408;28;20064;-63
2021/06/21 07:51:13;;;;;;;20.40;5.72;;;27.90;46.00;;;;;;5002980;28;20487;-63
2021/06/21 07:53:40;;;;;;;21.50;5.90;;;27.80;46.00;;;;;;5023535;28;20103;-62
2021/06/21 07:56:08;;;;;;;25.15;7.25;;;27.80;46.30;;;;;;4997181;28;20113;-62
2021/06/21 07:58:37;;;;;;;16.40;5.72;;;27.80;46.10;;;;;;5006446;28;20041;-62
2021/06/21 08:01:03;;;;;;;21.88;6.50;;;27.90;46.10;;;;;;5005438;28;20026;-62
2021/06/21 08:03:29;;;;;;;19.33;6.90;;;27.70;46.10;;;;;;5013621;28;20062;-62
2021/06/21 08:05:55;;;;;;;24.02;6.55;;;27.80;46.10;;;;;;4999263;28;20068;-62
2021/06/21 08:08:21;;;;;;;21.70;5.45;;;27.80;46.40;;;;;;5011481;28;20065;-62
2021/06/21 08:10:47;;;;;;;21.80;5.70;;;27.70;46.00;;;;;;5000706;28;20045;-63
2021/06/21 08:13:12;;;;;;;27.73;7.30;;;27.70;46.10;;;;;;4998337;28;20510;-63
2021/06/21 08:15:38;;;;;;;31.88;6.63;;;27.70;46.20;;;;;;5003527;28;20083;-63
2021/06/21 08:18:04;;;;;;;24.30;6.65;;;27.70;46.40;;;;;;5003562;28;20126;-62
2021/06/21 08:20:32;;;;;;;20.58;5.82;;;27.70;45.60;;;;;;5011351;28;20041;-62
2021/06/21 08:22:57;;;;;;;26.83;7.30;;;27.70;45.90;;;;;;5000783;28;20058;-62
2021/06/21 08:25:23;;;;;;;19.77;5.90;;;27.80;46.00;;;;;;5015354;28;20088;-63
2021/06/21 08:27:49;;;;;;;27.55;6.45;;;27.80;45.40;;;;;;5034919;28;20490;-63
2021/06/21 08:30:16;;;;;;;27.55;6.80;;;27.80;45.10;;;;;;5014801;28;20033;-63
2021/06/21 08:32:42;;;;;;;21.27;5.53;;;27.90;45.00;;;;;;5018879;28;20191;-63
2021/06/21 08:35:09;;;;;;;19.40;5.53;;;28.00;44.40;;;;;;5021155;28;20116;-61
2021/06/21 08:37:35;;;;;;;14.50;6.03;;;28.10;44.00;;;;;;5009530;28;20487;-61
2021/06/21 08:40:04;;;;;;;22.60;7.03;;;28.10;43.50;;;;;;5005620;28;20100;-62
2021/06/21 08:42:30;;;;;;;20.35;5.90;;;28.10;43.50;;;;;;5002597;28;20042;-62
2021/06/21 08:44:57;;;;;;;15.98;5.93;;;28.10;43.30;;;;;;5019216;28;20087;-62
2021/06/21 08:47:25;;;;;;;18.63;6.00;;;28.40;43.20;;;;;;5007551;28;20046;-62
2021/06/21 08:49:51;;;;;;;16.30;5.63;;;28.40;43.20;;;;;;5011514;28;20041;-62
2021/06/21 08:52:20;;;;;;;27.40;6.32;;;28.50;42.30;;;;;;5000335;28;20049;-61
2021/06/21 08:54:47;;;;;;;19.13;6.88;;;28.50;41.90;;;;;;5006677;28;20070;-62
2021/06/21 08:57:13;;;;;;;23.50;6.38;;;28.50;43.10;;;;;;5016612;28;20038;-62
2021/06/21 08:59:42;;;;;;;21.52;5.90;;;28.60;42.30;;;;;;5014887;28;20077;-62
2021/06/21 09:02:11;;;;;;;18.95;5.70;;;28.70;41.60;;;;;;5011935;28;20385;-63
2021/06/21 09:04:38;;;;;;;22.58;7.38;;;28.60;41.10;;;;;;5009181;28;20046;-62
2021/06/21 09:07:18;;;;;;;21.70;6.72;;;28.80;40.70;;;;;;5020355;28;20038;-62
2021/06/21 09:09:44;;;;;;;21.83;7.00;;;28.90;40.20;;;;;;5016040;28;20555;-62
2021/06/21 09:12:10;;;;;;;19.80;6.32;;;28.70;40.50;;;;;;5009903;28;20065;-62
2021/06/21 09:14:37;;;;;;;20.02;5.97;;;28.50;40.80;;;;;;5013486;28;20802;-62
2021/06/21 09:17:08;;;;;;;23.98;6.15;;;28.50;41.10;;;;;;5005680;28;20563;-62
2021/06/21 09:19:46;;;;;;;20.13;5.97;;;28.70;40.90;;;;;;5011085;28;20048;-62
2021/06/21 09:22:34;;;;;;;24.65;6.45;;;28.80;40.50;;;;;;5007814;28;20029;-63
2021/06/21 09:25:29;;;;;;;20.13;6.55;;;28.70;40.40;;;;;;5008603;28;20349;-62
2021/06/21 09:28:01;;;;;;;23.52;6.50;;;28.60;41.00;;;;;;5015609;28;20030;-63
2021/06/21 09:30:27;;;;;;;23.15;6.68;;;28.80;41.10;;;;;;5005306;28;20037;-62
2021/06/21 09:32:55;;;;;;;27.48;6.07;;;29.00;41.20;;;;;;5013633;28;20034;-62
2021/06/21 09:35:32;;;;;;;17.48;6.22;;;29.20;40.50;;;;;;5018635;28;20029;-63
2021/06/21 09:38:04;;;;;;;20.23;6.50;;;29.40;40.40;;;;;;5019517;28;20053;-62
2021/06/21 09:40:34;;;;;;;19.83;6.28;;;29.60;39.20;;;;;;5017385;28;20037;-63
2021/06/21 09:43:18;;;;;;;22.27;6.43;;;29.80;39.60;;;;;;5016498;28;20045;-62
2021/06/21 09:46:10;;;;;;;22.33;6.10;;;29.70;38.80;;;;;;5014021;28;20487;-63
2021/06/21 09:48:59;;;;;;;21.35;7.07;;;29.60;39.00;;;;;;5003670;28;20038;-62
2021/06/21 09:51:31;;;;;;;21.85;5.72;;;29.10;40.00;;;;;;5011463;28;20408;-63
2021/06/21 09:53:58;;;;;;;29.00;6.60;;;29.10;40.80;;;;;;5020610;28;20037;-63
2021/06/21 09:56:39;;;;;;;22.67;5.90;;;29.10;41.00;;;;;;5013365;28;20037;-63
2021/06/21 09:59:26;;;;;;;17.20;6.47;;;29.20;39.90;;;;;;4992785;28;20064;-63
2021/06/21 10:02:05;;;;;;;20.30;7.65;;;29.20;39.10;;;;;;5017567;28;20498;-62
2021/06/21 10:04:32;;;;;;;20.75;6.20;;;29.10;39.10;;;;;;5021993;28;20049;-61
2021/06/21 10:06:58;;;;;;;18.67;5.15;;;29.10;39.80;;;;;;5023397;28;20040;-62
2021/06/21 10:09:24;;;;;;;26.13;6.30;;;29.30;39.70;;;;;;5016015;28;20038;-63
2021/06/21 10:11:49;;;;;;;16.30;5.55;;;29.40;39.80;;;;;;5008437;28;20429;-62
2021/06/21 10:14:18;;;;;;;18.42;6.95;;;29.50;39.70;;;;;;5012034;28;20045;-62
2021/06/21 10:16:45;;;;;;;18.80;6.82;;;29.70;39.50;;;;;;5013649;28;20531;-62
2021/06/21 10:19:12;;;;;;;19.10;7.03;;;29.50;38.80;;;;;;5018943;28;20413;-63
2021/06/21 10:21:46;;;;;;;19.10;5.65;;;29.80;39.80;;;;;;5006559;28;20104;-61
2021/06/21 10:24:12;;;;;;;19.45;6.60;;;30.20;39.10;;;;;;5023938;28;20064;-62
2021/06/21 10:26:39;;;;;;;18.77;6.10;;;30.40;38.60;;;;;;5013271;28;20038;-62
2021/06/21 10:29:06;;;;;;;19.17;5.88;;;30.30;38.00;;;;;;5003953;28;20085;-63
2021/06/21 10:31:33;;;;;;;20.35;5.55;;;30.10;38.00;;;;;;5015697;28;20041;-63
2021/06/21 10:34:18;;;;;;;20.20;6.60;;;30.20;37.80;;;;;;5010821;28;20056;-61
2021/06/21 10:36:52;;;;;;;23.88;6.60;;;30.10;38.40;;;;;;5013189;28;20125;-63
2021/06/21 10:39:24;;;;;;;14.80;6.30;;;30.30;38.00;;;;;;5006446;28;20045;-63
2021/06/21 10:42:05;;;;;;;20.75;6.63;;;30.40;37.60;;;;;;5000653;28;20550;-63
2021/06/21 10:44:35;;;;;;;24.60;7.28;;;30.50;37.30;;;;;;5011882;28;20038;-63
2021/06/21 10:50:24;;;;;;;20.33;6.35;;;31.10;36.30;;;;;;4981575;28;20033;-63
2021/06/21 10:52:53;;;;;;;17.80;5.50;;;31.40;47.60;;;;;;5012067;28;20033;-63
2021/06/21 10:55:25;;;;;;;15.18;6.82;;;31.70;35.50;;;;;;5016467;28;20084;-63
2021/06/21 10:57:59;;;;;;;22.00;6.63;;;32.20;34.40;;;;;;5027450;28;20451;-64
2021/06/21 11:00:39;;;;;;;23.02;6.63;;;33.40;32.20;;;;;;5010887;28;20111;-64
2021/06/21 11:03:35;;;;;;;17.45;5.65;;;32.90;32.00;;;;;;4990652;28;20029;-63
2021/06/21 11:06:07;;;;;;;22.10;6.40;;;31.90;58.70;;;;;;4998729;28;20034;-62
2021/06/21 11:08:46;;;;;;;16.92;6.07;;;31.10;37.30;;;;;;5002285;28;20038;-61
2021/06/21 11:11:33;;;;;;;21.52;7.35;;;31.60;35.00;;;;;;5016607;28;20045;-62
2021/06/21 11:14:06;;;;;;;25.40;6.90;;;33.20;33.60;;;;;;5007641;28;20057;-62
2021/06/21 11:16:31;;;;;;;24.48;7.03;;;35.90;30.90;;;;;;5014181;28;20495;-62
2021/06/21 11:19:21;;;;;;;20.70;6.40;;;35.60;29.90;;;;;;5011184;28;20036;-61
2021/06/21 11:22:15;;;;;;;17.05;7.05;;;35.10;30.30;;;;;;5004573;28;20108;-62
2021/06/21 11:24:46;;;;;;;22.35;6.60;;;35.40;29.80;;;;;;4986778;28;20029;-62
2021/06/21 11:27:24;;;;;;;18.90;5.97;;;35.00;30.00;;;;;;5004712;28;20551;-62
2021/06/21 11:29:56;;;;;;;24.70;7.50;;;34.90;29.20;;;;;;5016654;28;20027;-63
2021/06/21 11:32:24;;;;;;;17.27;8.38;;;35.20;29.70;;;;;;5012901;28;20034;-63
2021/06/21 11:34:52;;;;;;;18.65;7.05;;;35.90;29.50;;;;;;5008814;28;20089;-63
2021/06/21 11:37:34;;;;;;;20.25;6.00;;;35.40;29.30;;;;;;4999369;28;20057;-63
2021/06/21 11:40:48;;;;;;;31.85;7.05;;;35.00;29.10;;;;;;5006927;28;20038;-63
2021/06/21 11:43:06;;;;;;;17.25;7.00;;;33.80;30.00;;;;;;4982455;28;20030;-62
2021/06/21 11:45:58;;;;;;;21.38;7.55;;;34.10;30.70;;;;;;5008063;28;20182;-62
2021/06/21 11:48:30;;;;;;;13.57;5.97;;;34.90;28.90;;;;;;5007804;28;20037;-63
2021/06/21 11:50:57;;;;;;;27.35;8.25;;;35.40;28.80;;;;;;5011730;28;20042;-62
2021/06/21 11:53:25;;;;;;;23.77;7.78;;;36.00;28.00;;;;;;5016405;28;20116;-62
2021/06/21 11:55:51;;;;;;;18.42;7.00;;;35.70;28.60;;;;;;5005780;28;20042;-63
2021/06/21 11:58:28;;;;;;;16.35;6.13;;;36.40;28.40;;;;;;5008781;28;20177;-62
2021/06/21 12:00:54;;;;;;;23.98;7.05;;;36.90;27.30;;;;;;5011432;28;20042;-62
2021/06/21 12:03:28;;;;;;;17.73;6.70;;;37.50;27.60;;;;;;5010392;28;20394;-63
2021/06/21 12:05:54;;;;;;;24.00;7.63;;;38.10;26.40;;;;;;5039727;28;20061;-62
2021/06/21 12:08:20;;;;;;;17.92;7.50;;;39.10;25.30;;;;;;5004254;28;20125;-62
2021/06/21 12:10:46;;;;;;;18.65;6.50;;;39.30;33.30;;;;;;5007461;28;20456;-63
2021/06/21 12:13:12;;;;;;;21.88;7.00;;;40.00;24.20;;;;;;5001357;28;20124;-64
2021/06/21 12:15:41;;;;;;;20.45;6.53;;;39.50;23.70;;;;;;4981099;28;20074;-63
2021/06/21 12:18:08;;;;;;;22.40;6.63;;;39.40;23.70;;;;;;5010521;28;20128;-63
2021/06/21 12:20:34;;;;;;;25.35;7.25;;;39.70;23.70;;;;;;5007870;28;20169;-64
2021/06/21 12:23:06;;;;;;;21.48;6.80;;;38.90;23.60;;;;;;5019381;28;20037;-63
2021/06/21 12:25:39;;;;;;;19.50;7.95;;;39.20;23.40;;;;;;5007577;28;20037;-64
2021/06/21 12:28:12;;;;;;;16.45;6.78;;;38.60;24.60;;;;;;5048103;28;20034;-63
2021/06/21 12:30:48;;;;;;;25.30;7.10;;;37.40;25.40;;;;;;5006319;28;20103;-63
2021/06/21 12:33:39;;;;;;;19.02;6.68;;;36.80;27.00;;;;;;5001450;28;20069;-62
2021/06/21 12:36:06;;;;;;;25.30;7.55;;;38.30;25.90;;;;;;4985148;28;20513;-63
2021/06/21 12:38:32;;;;;;;21.13;7.35;;;39.10;25.00;;;;;;5014917;28;20049;-63
2021/06/21 12:40:58;;;;;;;17.30;7.07;;;37.80;25.50;;;;;;5013576;28;20033;-62
2021/06/21 12:43:23;;;;;;;19.88;6.47;;;38.90;25.40;;;;;;5012194;28;20083;-63
2021/06/21 12:45:49;;;;;;;22.58;7.20;;;40.50;23.80;;;;;;5010481;28;20041;-63
2021/06/21 12:48:16;;;;;;;24.45;7.50;;;41.70;22.50;;;;;;5020379;28;20041;-63
2021/06/21 12:50:42;;;;;;;19.88;6.78;;;43.20;22.00;;;;;;5014865;28;20049;-63
2021/06/21 12:53:08;;;;;;;19.50;8.85;;;44.20;21.60;;;;;;5016912;28;20041;-63
2021/06/21 12:55:35;;;;;;;18.58;7.85;;;44.50;21.70;;;;;;5014020;28;20073;-63